createdAt,value
2022-09-06T00:01:17.107Z,100924.19
2022-09-06T00:06:20.196Z,100927.66
2022-09-06T00:11:21.738Z,100943.78
2022-09-06T00:16:27.367Z,100950.00
2022-09-06T00:21:32.022Z,100956.19
2022-09-06T00:26:33.744Z,100981.31
2022-09-06T00:31:35.368Z,101040.34
2022-09-06T00:36:37.104Z,101079.56
2022-09-06T00:41:38.717Z,101074.84
2022-09-06T00:46:44.466Z,101061.06
2022-09-06T00:51:46.104Z,101054.44
2022-09-06T00:56:48.219Z,101040.63
2022-09-06T01:01:49.894Z,101051.38
2022-09-06T01:06:57.560Z,101032.81
2022-09-06T01:12:25.728Z,101006.75
2022-09-06T01:18:00.633Z,101009.88
2022-09-06T01:23:51.705Z,101024.53
2022-09-06T01:28:54.711Z,101030.56
2022-09-06T01:34:05.477Z,101023.94
2022-09-06T01:39:07.091Z,101016.50
2022-09-06T01:44:08.729Z,101008.97
2022-09-06T01:49:23.722Z,101009.91
2022-09-06T01:54:28.224Z,101007.94
2022-09-06T01:59:41.657Z,101005.81
2022-09-06T02:04:56.875Z,100999.88
2022-09-06T02:10:07.697Z,100980.63
2022-09-06T02:15:29.653Z,100986.22
2022-09-06T02:20:36.572Z,100990.38
2022-09-06T02:25:42.044Z,100981.00
2022-09-06T02:30:50.740Z,100987.03
2022-09-06T02:35:54.486Z,100996.75
2022-09-06T02:40:56.760Z,101035.84
2022-09-06T02:45:58.341Z,101035.41
2022-09-06T02:51:05.000Z,101019.16
2022-09-06T02:56:06.900Z,101027.47
2022-09-06T03:01:08.659Z,101015.28
2022-09-06T03:06:10.267Z,101001.50
2022-09-06T03:11:11.931Z,100998.91
2022-09-06T03:16:13.610Z,100988.13
2022-09-06T03:21:15.292Z,100992.06
2022-09-06T03:26:16.913Z,100978.25
2022-09-06T03:31:18.577Z,100969.28
2022-09-06T03:36:20.235Z,100972.91
2022-09-06T03:41:21.815Z,100968.19
2022-09-06T03:46:23.437Z,100965.84
2022-09-06T03:51:25.256Z,100961.84
2022-09-06T03:56:26.831Z,100969.63
2022-09-06T04:01:28.845Z,100964.78
2022-09-06T04:06:30.544Z,100951.13
2022-09-06T04:11:32.111Z,100941.06
2022-09-06T04:16:33.729Z,100949.94
2022-09-06T04:21:35.308Z,100945.31
2022-09-06T04:26:37.189Z,100943.13
2022-09-06T04:31:38.911Z,100939.31
2022-09-06T04:36:40.563Z,100944.53
2022-09-06T04:41:42.236Z,100950.13
2022-09-06T04:46:43.822Z,100944.09
2022-09-06T04:51:46.471Z,100955.47
2022-09-06T04:56:48.015Z,100952.13
2022-09-06T05:01:49.741Z,100959.81
2022-09-06T05:07:03.585Z,100964.22
2022-09-06T05:12:05.429Z,100967.13
2022-09-06T05:17:07.010Z,100957.34
2022-09-06T05:22:08.648Z,100968.97
2022-09-06T05:27:10.435Z,100974.25
2022-09-06T05:32:13.024Z,100983.09
2022-09-06T05:37:15.143Z,100975.78
2022-09-06T05:42:19.289Z,100978.91
2022-09-06T05:47:21.551Z,100974.06
2022-09-06T05:52:23.289Z,100971.41
2022-09-06T05:57:25.341Z,100989.47
2022-09-06T06:02:27.677Z,100985.69
2022-09-06T06:07:30.023Z,100985.34
2022-09-06T06:12:32.078Z,100984.00
2022-09-06T06:17:34.107Z,100984.56
2022-09-06T06:22:35.964Z,100987.84
2022-09-06T06:27:38.223Z,100985.16
2022-09-06T06:32:40.798Z,100979.66
2022-09-06T06:37:42.337Z,100980.47
2022-09-06T06:42:44.667Z,100990.31
2022-09-06T06:47:49.858Z,100991.06
2022-09-06T06:52:52.535Z,100987.06
2022-09-06T06:57:56.068Z,100987.03
2022-09-06T07:02:58.001Z,100990.56
2022-09-06T07:08:01.036Z,100983.47
2022-09-06T07:13:03.574Z,100987.28
2022-09-06T07:18:05.254Z,100987.03
2022-09-06T07:28:28.538Z,100974.75
2022-09-06T07:33:30.183Z,100970.34
2022-09-06T07:38:32.704Z,100983.75
2022-09-06T07:43:35.077Z,100974.94
2022-09-06T07:48:39.546Z,100983.88
2022-09-06T07:53:43.456Z,100979.34
2022-09-06T07:58:45.046Z,100973.13
2022-09-06T08:03:47.541Z,100976.03
2022-09-06T08:08:57.552Z,100974.16
2022-09-06T08:14:01.136Z,100970.22
2022-09-06T08:19:05.874Z,100972.16
2022-09-06T08:24:09.013Z,100968.78
2022-09-06T08:29:11.757Z,100967.28
2022-09-06T08:34:13.513Z,100958.41
2022-09-06T08:39:15.269Z,100961.97
2022-09-06T08:49:56.992Z,100965.34
2022-09-06T08:55:22.930Z,100959.59
2022-09-06T09:00:24.910Z,100957.97
2022-09-06T09:05:38.478Z,100950.91
2022-09-06T09:10:48.018Z,100951.91
2022-09-06T09:15:50.128Z,100947.94
2022-09-06T09:20:52.148Z,100937.34
2022-09-06T09:25:59.440Z,100933.19
2022-09-06T09:31:01.527Z,100929.13
2022-09-06T09:36:09.579Z,100929.41
2022-09-06T09:41:26.902Z,100918.22
2022-09-06T09:46:40.061Z,100899.66
2022-09-06T09:51:45.111Z,100899.66
2022-09-06T09:56:51.511Z,100893.63
2022-09-06T10:01:58.909Z,100894.63
2022-09-06T10:07:12.662Z,100895.31
2022-09-06T10:12:47.806Z,100894.31
2022-09-06T10:17:51.633Z,100891.44
2022-09-06T10:23:00.711Z,100874.38
2022-09-06T10:28:17.138Z,100878.03
2022-09-06T10:33:46.122Z,100881.75
2022-09-06T10:39:37.252Z,100874.31
2022-09-06T10:45:00.649Z,100887.75
2022-09-06T10:50:05.300Z,100889.09
2022-09-06T10:55:11.638Z,100863.00
2022-09-06T11:00:14.467Z,100851.00
2022-09-06T11:10:43.542Z,100851.72
2022-09-06T11:15:54.350Z,100847.16
2022-09-06T11:21:26.949Z,100841.69
2022-09-06T11:27:00.232Z,100838.28
2022-09-06T11:32:20.331Z,100849.13
2022-09-06T11:37:30.860Z,100842.50
2022-09-06T11:42:46.269Z,100835.69
2022-09-06T11:47:48.735Z,100839.06
2022-09-06T11:53:09.209Z,100824.38
2022-09-06T11:58:23.113Z,100815.78
2022-09-06T12:09:32.656Z,100804.16
2022-09-06T12:14:42.970Z,100800.06
2022-09-06T12:20:03.145Z,100800.13
2022-09-06T12:25:40.270Z,100801.56
2022-09-06T12:30:45.132Z,100805.97
2022-09-06T12:36:04.611Z,100793.06
2022-09-06T12:41:08.958Z,100784.34
2022-09-06T12:46:10.592Z,100781.00
2022-09-06T12:51:20.357Z,100776.88
2022-09-06T12:56:23.851Z,100776.03
2022-09-06T13:01:32.488Z,100781.19
2022-09-06T13:06:41.958Z,100780.06
2022-09-06T13:11:46.740Z,100783.09
2022-09-06T13:16:53.103Z,100768.59
2022-09-06T13:21:54.815Z,100760.06
2022-09-06T13:26:56.464Z,100760.41
2022-09-06T13:32:01.332Z,100761.63
2022-09-06T13:37:08.935Z,100758.72
2022-09-06T13:42:27.362Z,100761.13
2022-09-06T13:47:29.673Z,100752.09
2022-09-06T13:52:31.485Z,100749.84
2022-09-06T13:57:33.397Z,100752.56
2022-09-06T14:02:35.742Z,100747.75
2022-09-06T14:07:37.993Z,100734.81
2022-09-06T14:12:40.471Z,100743.84
2022-09-06T14:17:42.035Z,100739.56
2022-09-06T14:22:43.665Z,100730.81
2022-09-06T14:27:45.843Z,100721.00
2022-09-06T14:32:47.413Z,100723.47
2022-09-06T14:37:54.156Z,100710.75
2022-09-06T14:42:55.962Z,100707.88
2022-09-06T14:47:57.561Z,100690.72
2022-09-06T14:53:01.212Z,100694.69
2022-09-06T14:58:03.126Z,100679.88
2022-09-06T15:03:04.926Z,100678.88
2022-09-06T15:08:06.718Z,100678.47
2022-09-06T15:13:09.820Z,100666.75
2022-09-06T15:18:11.453Z,100657.69
2022-09-06T15:23:24.904Z,100655.19
2022-09-06T15:28:27.235Z,100651.09
2022-09-06T15:33:30.955Z,100648.13
2022-09-06T15:38:36.807Z,100637.63
2022-09-06T15:43:44.417Z,100638.94
2022-09-06T15:48:48.393Z,100634.34
2022-09-06T15:53:50.115Z,100630.72
2022-09-06T15:58:52.407Z,100638.19
2022-09-06T16:04:01.101Z,100628.47
2022-09-06T16:09:14.438Z,100630.66
2022-09-06T16:14:16.605Z,100635.22
2022-09-06T16:19:18.366Z,100633.69
2022-09-06T16:24:20.601Z,100631.16
2022-09-06T16:29:22.737Z,100623.75
2022-09-06T16:34:25.366Z,100618.81
2022-09-06T16:39:27.264Z,100609.84
2022-09-06T16:44:29.310Z,100613.91
2022-09-06T16:49:30.982Z,100619.91
2022-09-06T16:54:32.972Z,100619.22
2022-09-06T16:59:34.639Z,100603.31
2022-09-06T17:04:36.990Z,100610.53
2022-09-06T17:09:39.301Z,100610.31
2022-09-06T17:14:41.708Z,100612.34
2022-09-06T17:19:43.851Z,100602.50
2022-09-06T17:24:45.488Z,100606.16
2022-09-06T17:29:47.151Z,100604.09
2022-09-06T17:34:48.823Z,100597.91
2022-09-06T17:39:50.534Z,100597.84
2022-09-06T17:44:53.112Z,100593.00
2022-09-06T17:49:55.742Z,100581.47
2022-09-06T17:54:58.277Z,100588.25
2022-09-06T18:00:00.008Z,100595.09
2022-09-06T18:05:02.090Z,100596.47
2022-09-06T18:10:04.092Z,100594.78
2022-09-06T18:15:06.556Z,100598.78
2022-09-06T18:20:08.897Z,100606.97
2022-09-06T18:25:11.691Z,100611.47
2022-09-06T18:30:15.077Z,100625.34
2022-09-06T18:35:16.898Z,100629.81
2022-09-06T18:40:18.623Z,100638.72
2022-09-06T18:45:20.270Z,100637.59
2022-09-06T18:50:21.917Z,100629.75
2022-09-06T18:55:23.605Z,100628.78
2022-09-06T19:00:25.288Z,100624.47
2022-09-06T19:05:27.331Z,100622.03
2022-09-06T19:10:29.139Z,100622.09
2022-09-06T19:15:30.922Z,100618.81
2022-09-06T19:20:32.520Z,100620.00
2022-09-06T19:25:34.122Z,100620.19
2022-09-06T19:30:35.946Z,100620.63
2022-09-06T19:35:50.831Z,100602.81
2022-09-06T19:41:05.919Z,100592.72
2022-09-06T19:46:09.460Z,100606.75
2022-09-06T19:51:11.851Z,100605.00
2022-09-06T19:56:16.291Z,100598.00
2022-09-06T20:01:18.176Z,100592.06
2022-09-06T20:06:20.117Z,100599.75
2022-09-06T20:11:25.511Z,100609.41
2022-09-06T20:16:28.723Z,100610.88
2022-09-06T20:21:31.011Z,100625.31
2022-09-06T20:26:32.705Z,100660.59
2022-09-06T20:31:36.691Z,100684.97
2022-09-06T20:36:38.419Z,100677.09
2022-09-06T20:41:40.014Z,100643.88
2022-09-06T20:46:41.836Z,100609.25
2022-09-06T20:51:43.468Z,100650.91
2022-09-06T20:56:45.644Z,100659.03
2022-09-06T21:01:47.536Z,100676.72
2022-09-06T21:06:49.533Z,100717.38
2022-09-06T21:11:51.440Z,100739.38
2022-09-06T21:16:53.248Z,100703.34
2022-09-06T21:21:55.568Z,100697.16
2022-09-06T21:26:57.169Z,100697.75
2022-09-06T21:31:58.834Z,100695.97
2022-09-06T21:37:00.689Z,100674.00
2022-09-06T21:42:02.247Z,100639.53
2022-09-06T21:47:04.435Z,100620.56
2022-09-06T21:52:07.084Z,100589.09
2022-09-06T21:57:08.946Z,100564.50
2022-09-06T22:02:12.617Z,100539.38
2022-09-06T22:07:14.498Z,100500.22
2022-09-06T22:12:16.141Z,100493.91
2022-09-06T22:17:18.826Z,100474.00
2022-09-06T22:22:20.682Z,100459.25
2022-09-06T22:27:22.928Z,100467.72
2022-09-06T22:32:24.576Z,100460.94
2022-09-06T22:37:26.875Z,100470.34
2022-09-06T22:42:28.993Z,100493.44
2022-09-06T22:47:34.066Z,100515.59
2022-09-06T22:52:35.903Z,100533.63
2022-09-06T22:57:38.214Z,100535.53
2022-09-06T23:02:40.798Z,100541.41
2022-09-06T23:07:43.063Z,100553.19
2022-09-06T23:12:47.623Z,100592.34
2022-09-06T23:17:49.874Z,100692.97
2022-09-06T23:22:51.658Z,100712.72
2022-09-06T23:27:55.140Z,100719.78
2022-09-06T23:32:57.417Z,100730.53
2022-09-06T23:37:59.035Z,100753.81
2022-09-06T23:43:01.525Z,100776.44
2022-09-06T23:48:04.226Z,100801.75
2022-09-06T23:53:05.879Z,100826.66
2022-09-06T23:58:09.027Z,100834.63
